sensor_id;sensor_type;location;lat;lon;timestamp;P1;durP1;ratioP1;P2;durP2;ratioP2
17991;SDS011;9121;50.926;5.340;2022-08-21T00:00:06;5.57;;;2.83;;
17991;SDS011;9121;50.926;5.340;2022-08-21T00:02:35;8.32;;;3.35;;
17991;SDS011;9121;50.926;5.340;2022-08-21T00:05:04;11.35;;;3.25;;
17991;SDS011;9121;50.926;5.340;2022-08-21T00:07:32;10.23;;;3.33;;
17991;SDS011;9121;50.926;5.340;2022-08-21T00:09:59;7.28;;;3.88;;
17991;SDS011;9121;50.926;5.340;2022-08-21T00:12:26;12.07;;;3.25;;
17991;SDS011;9121;50.926;5.340;2022-08-21T00:14:53;7.13;;;3.03;;
17991;SDS011;9121;50.926;5.340;2022-08-21T00:17:20;7.78;;;3.22;;
17991;SDS011;9121;50.926;5.340;2022-08-21T00:19:47;15.00;;;3.83;;
17991;SDS011;9121;50.926;5.340;2022-08-21T00:22:16;10.07;;;3.55;;
17991;SDS011;9121;50.926;5.340;2022-08-21T00:24:43;8.60;;;3.38;;
17991;SDS011;9121;50.926;5.340;2022-08-21T00:27:10;10.00;;;3.80;;
17991;SDS011;9121;50.926;5.340;2022-08-21T00:29:36;16.50;;;3.97;;
17991;SDS011;9121;50.926;5.340;2022-08-21T00:32:03;8.00;;;3.15;;
17991;SDS011;9121;50.926;5.340;2022-08-21T00:34:31;9.60;;;3.92;;
17991;SDS011;9121;50.926;5.340;2022-08-21T00:36:58;13.02;;;3.83;;
17991;SDS011;9121;50.926;5.340;2022-08-21T00:39:27;7.88;;;3.38;;
17991;SDS011;9121;50.926;5.340;2022-08-21T00:41:53;9.45;;;3.63;;
17991;SDS011;9121;50.926;5.340;2022-08-21T00:44:21;11.27;;;3.63;;
17991;SDS011;9121;50.926;5.340;2022-08-21T00:46:47;11.52;;;3.83;;
17991;SDS011;9121;50.926;5.340;2022-08-21T00:49:15;10.68;;;3.40;;
17991;SDS011;9121;50.926;5.340;2022-08-21T00:51:44;11.00;;;4.40;;
17991;SDS011;9121;50.926;5.340;2022-08-21T00:54:14;5.15;;;3.20;;
17991;SDS011;9121;50.926;5.340;2022-08-21T00:56:43;10.52;;;3.38;;
17991;SDS011;9121;50.926;5.340;2022-08-21T00:59:10;10.93;;;3.90;;
17991;SDS011;9121;50.926;5.340;2022-08-21T01:01:37;9.80;;;3.35;;
17991;SDS011;9121;50.926;5.340;2022-08-21T01:04:04;19.00;;;3.70;;
17991;SDS011;9121;50.926;5.340;2022-08-21T01:06:31;10.88;;;3.65;;
17991;SDS011;9121;50.926;5.340;2022-08-21T01:08:58;11.60;;;3.13;;
17991;SDS011;9121;50.926;5.340;2022-08-21T01:11:25;14.52;;;3.63;;
17991;SDS011;9121;50.926;5.340;2022-08-21T01:13:54;11.20;;;3.17;;
17991;SDS011;9121;50.926;5.340;2022-08-21T01:16:21;10.75;;;3.92;;
17991;SDS011;9121;50.926;5.340;2022-08-21T01:18:49;12.85;;;4.07;;
17991;SDS011;9121;50.926;5.340;2022-08-21T01:21:19;11.35;;;3.90;;
17991;SDS011;9121;50.926;5.340;2022-08-21T01:23:49;10.30;;;3.85;;
17991;SDS011;9121;50.926;5.340;2022-08-21T01:26:20;7.00;;;3.53;;
17991;SDS011;9121;50.926;5.340;2022-08-21T01:28:49;8.82;;;3.78;;
17991;SDS011;9121;50.926;5.340;2022-08-21T01:31:22;11.25;;;3.83;;
17991;SDS011;9121;50.926;5.340;2022-08-21T01:33:51;9.27;;;3.92;;
17991;SDS011;9121;50.926;5.340;2022-08-21T01:36:20;12.48;;;4.03;;
17991;SDS011;9121;50.926;5.340;2022-08-21T01:38:48;9.57;;;3.47;;
17991;SDS011;9121;50.926;5.340;2022-08-21T01:41:15;11.38;;;3.45;;
17991;SDS011;9121;50.926;5.340;2022-08-21T01:43:43;7.63;;;3.40;;
17991;SDS011;9121;50.926;5.340;2022-08-21T01:46:11;12.73;;;4.15;;
17991;SDS011;9121;50.926;5.340;2022-08-21T01:48:38;8.98;;;3.60;;
17991;SDS011;9121;50.926;5.340;2022-08-21T01:51:06;12.63;;;4.30;;
17991;SDS011;9121;50.926;5.340;2022-08-21T01:53:34;11.23;;;3.60;;
17991;SDS011;9121;50.926;5.340;2022-08-21T01:56:03;13.50;;;3.40;;
17991;SDS011;9121;50.926;5.340;2022-08-21T01:58:32;6.78;;;3.50;;
17991;SDS011;9121;50.926;5.340;2022-08-21T02:00:59;10.85;;;3.75;;
17991;SDS011;9121;50.926;5.340;2022-08-21T02:03:27;13.38;;;4.00;;
17991;SDS011;9121;50.926;5.340;2022-08-21T02:05:54;8.77;;;3.55;;
17991;SDS011;9121;50.926;5.340;2022-08-21T02:08:21;11.35;;;4.05;;
17991;SDS011;9121;50.926;5.340;2022-08-21T02:10:50;11.38;;;3.60;;
17991;SDS011;9121;50.926;5.340;2022-08-21T02:13:18;13.55;;;3.55;;
17991;SDS011;9121;50.926;5.340;2022-08-21T02:15:45;12.23;;;3.30;;
17991;SDS011;9121;50.926;5.340;2022-08-21T02:18:12;9.27;;;4.20;;
17991;SDS011;9121;50.926;5.340;2022-08-21T02:20:40;11.43;;;4.22;;
17991;SDS011;9121;50.926;5.340;2022-08-21T02:23:10;14.35;;;3.88;;
17991;SDS011;9121;50.926;5.340;2022-08-21T02:25:38;10.98;;;3.65;;
17991;SDS011;9121;50.926;5.340;2022-08-21T02:28:07;14.73;;;4.15;;
17991;SDS011;9121;50.926;5.340;2022-08-21T02:30:39;14.10;;;3.80;;
17991;SDS011;9121;50.926;5.340;2022-08-21T02:33:07;9.15;;;3.70;;
17991;SDS011;9121;50.926;5.340;2022-08-21T02:35:35;14.38;;;4.13;;
17991;SDS011;9121;50.926;5.340;2022-08-21T02:38:04;11.02;;;3.75;;
17991;SDS011;9121;50.926;5.340;2022-08-21T02:40:33;15.77;;;4.85;;
17991;SDS011;9121;50.926;5.340;2022-08-21T02:43:02;9.40;;;3.90;;
17991;SDS011;9121;50.926;5.340;2022-08-21T02:45:33;9.40;;;3.92;;
17991;SDS011;9121;50.926;5.340;2022-08-21T02:48:03;10.75;;;3.58;;
17991;SDS011;9121;50.926;5.340;2022-08-21T02:50:32;10.25;;;4.10;;
17991;SDS011;9121;50.926;5.340;2022-08-21T02:53:02;15.05;;;4.05;;
17991;SDS011;9121;50.926;5.340;2022-08-21T02:55:31;9.90;;;4.13;;
17991;SDS011;9121;50.926;5.340;2022-08-21T02:58:00;10.00;;;3.45;;
17991;SDS011;9121;50.926;5.340;2022-08-21T03:00:28;11.93;;;4.00;;
17991;SDS011;9121;50.926;5.340;2022-08-21T03:02:58;10.82;;;3.53;;
17991;SDS011;9121;50.926;5.340;2022-08-21T03:05:26;10.85;;;3.88;;
17991;SDS011;9121;50.926;5.340;2022-08-21T03:07:56;10.20;;;4.43;;
17991;SDS011;9121;50.926;5.340;2022-08-21T03:10:24;10.32;;;4.10;;
17991;SDS011;9121;50.926;5.340;2022-08-21T03:12:51;13.75;;;4.15;;
17991;SDS011;9121;50.926;5.340;2022-08-21T03:15:19;16.08;;;4.22;;
17991;SDS011;9121;50.926;5.340;2022-08-21T03:17:48;9.10;;;3.63;;
17991;SDS011;9121;50.926;5.340;2022-08-21T03:20:19;17.73;;;4.80;;
17991;SDS011;9121;50.926;5.340;2022-08-21T03:22:47;13.13;;;3.72;;
17991;SDS011;9121;50.926;5.340;2022-08-21T03:25:15;12.70;;;4.05;;
17991;SDS011;9121;50.926;5.340;2022-08-21T03:27:42;11.00;;;4.00;;
17991;SDS011;9121;50.926;5.340;2022-08-21T03:30:10;10.40;;;3.15;;
17991;SDS011;9121;50.926;5.340;2022-08-21T03:32:38;7.20;;;3.47;;
17991;SDS011;9121;50.926;5.340;2022-08-21T03:35:06;12.75;;;3.83;;
17991;SDS011;9121;50.926;5.340;2022-08-21T03:37:35;10.90;;;3.67;;
17991;SDS011;9121;50.926;5.340;2022-08-21T03:40:02;14.27;;;3.97;;
17991;SDS011;9121;50.926;5.340;2022-08-21T03:42:29;10.82;;;3.55;;
17991;SDS011;9121;50.926;5.340;2022-08-21T03:44:56;11.27;;;3.67;;
17991;SDS011;9121;50.926;5.340;2022-08-21T03:47:23;9.10;;;3.58;;
17991;SDS011;9121;50.926;5.340;2022-08-21T03:49:50;9.93;;;3.55;;
17991;SDS011;9121;50.926;5.340;2022-08-21T03:52:17;9.88;;;3.92;;
17991;SDS011;9121;50.926;5.340;2022-08-21T03:54:46;8.90;;;3.25;;
17991;SDS011;9121;50.926;5.340;2022-08-21T03:57:13;8.18;;;3.42;;
17991;SDS011;9121;50.926;5.340;2022-08-21T03:59:40;9.05;;;3.42;;
17991;SDS011;9121;50.926;5.340;2022-08-21T04:02:07;7.60;;;3.92;;
17991;SDS011;9121;50.926;5.340;2022-08-21T04:04:35;23.65;;;4.65;;
17991;SDS011;9121;50.926;5.340;2022-08-21T04:07:02;13.52;;;3.63;;
17991;SDS011;9121;50.926;5.340;2022-08-21T04:09:30;12.77;;;3.63;;
17991;SDS011;9121;50.926;5.340;2022-08-21T04:11:59;15.85;;;4.00;;
17991;SDS011;9121;50.926;5.340;2022-08-21T04:14:26;12.15;;;3.40;;
17991;SDS011;9121;50.926;5.340;2022-08-21T04:16:53;11.80;;;4.07;;
17991;SDS011;9121;50.926;5.340;2022-08-21T04:19:20;13.90;;;3.55;;
17991;SDS011;9121;50.926;5.340;2022-08-21T04:21:47;16.05;;;3.83;;
17991;SDS011;9121;50.926;5.340;2022-08-21T04:24:14;8.20;;;3.50;;
17991;SDS011;9121;50.926;5.340;2022-08-21T04:26:41;9.23;;;3.30;;
17991;SDS011;9121;50.926;5.340;2022-08-21T04:29:10;15.63;;;4.30;;
17991;SDS011;9121;50.926;5.340;2022-08-21T04:31:37;13.13;;;4.10;;
17991;SDS011;9121;50.926;5.340;2022-08-21T04:34:04;12.23;;;3.90;;
17991;SDS011;9121;50.926;5.340;2022-08-21T04:36:31;10.88;;;3.97;;
17991;SDS011;9121;50.926;5.340;2022-08-21T04:38:58;15.32;;;3.65;;
17991;SDS011;9121;50.926;5.340;2022-08-21T04:41:25;44.10;;;4.93;;
17991;SDS011;9121;50.926;5.340;2022-08-21T04:43:52;16.17;;;4.13;;
17991;SDS011;9121;50.926;5.340;2022-08-21T04:46:21;9.35;;;3.38;;
17991;SDS011;9121;50.926;5.340;2022-08-21T04:48:49;10.52;;;3.60;;
17991;SDS011;9121;50.926;5.340;2022-08-21T04:51:16;8.45;;;3.35;;
17991;SDS011;9121;50.926;5.340;2022-08-21T04:53:46;13.13;;;3.50;;
17991;SDS011;9121;50.926;5.340;2022-08-21T04:56:18;16.20;;;3.70;;
17991;SDS011;9121;50.926;5.340;2022-08-21T04:58:49;13.02;;;3.40;;
17991;SDS011;9121;50.926;5.340;2022-08-21T05:01:18;8.43;;;2.95;;
17991;SDS011;9121;50.926;5.340;2022-08-21T05:03:50;11.82;;;3.60;;
17991;SDS011;9121;50.926;5.340;2022-08-21T05:06:21;15.50;;;3.92;;
17991;SDS011;9121;50.926;5.340;2022-08-21T05:08:50;12.38;;;3.33;;
17991;SDS011;9121;50.926;5.340;2022-08-21T05:11:19;10.05;;;3.22;;
17991;SDS011;9121;50.926;5.340;2022-08-21T05:13:47;13.65;;;3.50;;
17991;SDS011;9121;50.926;5.340;2022-08-21T05:16:14;10.05;;;3.38;;
17991;SDS011;9121;50.926;5.340;2022-08-21T05:18:41;13.77;;;2.85;;
17991;SDS011;9121;50.926;5.340;2022-08-21T05:21:10;9.98;;;3.80;;
17991;SDS011;9121;50.926;5.340;2022-08-21T05:23:37;8.35;;;3.28;;
17991;SDS011;9121;50.926;5.340;2022-08-21T05:26:04;8.63;;;3.20;;
17991;SDS011;9121;50.926;5.340;2022-08-21T05:28:31;8.45;;;3.13;;
17991;SDS011;9121;50.926;5.340;2022-08-21T05:30:58;14.68;;;2.90;;
17991;SDS011;9121;50.926;5.340;2022-08-21T05:33:25;12.68;;;3.20;;
17991;SDS011;9121;50.926;5.340;2022-08-21T05:35:53;13.60;;;3.35;;
17991;SDS011;9121;50.926;5.340;2022-08-21T05:38:22;9.20;;;3.10;;
17991;SDS011;9121;50.926;5.340;2022-08-21T05:40:49;4.63;;;2.85;;
17991;SDS011;9121;50.926;5.340;2022-08-21T05:43:16;7.85;;;3.22;;
17991;SDS011;9121;50.926;5.340;2022-08-21T05:45:43;12.32;;;3.55;;
17991;SDS011;9121;50.926;5.340;2022-08-21T05:48:11;8.95;;;3.22;;
17991;SDS011;9121;50.926;5.340;2022-08-21T05:50:40;9.98;;;3.20;;
17991;SDS011;9121;50.926;5.340;2022-08-21T05:53:08;10.30;;;3.38;;
17991;SDS011;9121;50.926;5.340;2022-08-21T05:55:37;9.10;;;3.15;;
17991;SDS011;9121;50.926;5.340;2022-08-21T05:58:04;10.75;;;3.08;;
17991;SDS011;9121;50.926;5.340;2022-08-21T06:00:31;11.25;;;3.25;;
17991;SDS011;9121;50.926;5.340;2022-08-21T06:02:58;7.38;;;2.70;;
17991;SDS011;9121;50.926;5.340;2022-08-21T06:05:26;7.47;;;2.88;;
17991;SDS011;9121;50.926;5.340;2022-08-21T06:07:53;12.95;;;3.55;;
17991;SDS011;9121;50.926;5.340;2022-08-21T06:10:20;11.55;;;3.05;;
17991;SDS011;9121;50.926;5.340;2022-08-21T06:12:48;8.75;;;3.20;;
17991;SDS011;9121;50.926;5.340;2022-08-21T06:15:19;9.40;;;3.35;;
17991;SDS011;9121;50.926;5.340;2022-08-21T06:17:46;8.48;;;2.92;;
17991;SDS011;9121;50.926;5.340;2022-08-21T06:20:13;9.70;;;3.20;;
17991;SDS011;9121;50.926;5.340;2022-08-21T06:22:40;10.02;;;3.35;;
17991;SDS011;9121;50.926;5.340;2022-08-21T06:25:07;12.25;;;2.70;;
17991;SDS011;9121;50.926;5.340;2022-08-21T06:27:35;8.27;;;2.88;;
17991;SDS011;9121;50.926;5.340;2022-08-21T06:30:04;12.93;;;3.20;;
17991;SDS011;9121;50.926;5.340;2022-08-21T06:32:33;9.52;;;2.85;;
17991;SDS011;9121;50.926;5.340;2022-08-21T06:35:00;9.45;;;3.00;;
17991;SDS011;9121;50.926;5.340;2022-08-21T06:37:27;7.85;;;2.95;;
17991;SDS011;9121;50.926;5.340;2022-08-21T06:39:54;10.68;;;3.03;;
17991;SDS011;9121;50.926;5.340;2022-08-21T06:42:21;13.93;;;2.95;;
17991;SDS011;9121;50.926;5.340;2022-08-21T06:44:48;10.55;;;3.05;;
17991;SDS011;9121;50.926;5.340;2022-08-21T06:47:16;10.68;;;3.33;;
17991;SDS011;9121;50.926;5.340;2022-08-21T06:49:43;11.18;;;2.35;;
17991;SDS011;9121;50.926;5.340;2022-08-21T06:52:10;11.00;;;2.90;;
17991;SDS011;9121;50.926;5.340;2022-08-21T06:54:38;9.88;;;3.25;;
17991;SDS011;9121;50.926;5.340;2022-08-21T06:57:06;8.18;;;2.55;;
17991;SDS011;9121;50.926;5.340;2022-08-21T06:59:33;10.93;;;2.47;;
17991;SDS011;9121;50.926;5.340;2022-08-21T07:02:00;7.57;;;2.90;;
17991;SDS011;9121;50.926;5.340;2022-08-21T07:04:29;11.27;;;3.10;;
17991;SDS011;9121;50.926;5.340;2022-08-21T07:06:56;12.68;;;3.00;;
17991;SDS011;9121;50.926;5.340;2022-08-21T07:09:23;10.73;;;3.17;;
17991;SDS011;9121;50.926;5.340;2022-08-21T07:11:50;11.35;;;3.15;;
17991;SDS011;9121;50.926;5.340;2022-08-21T07:14:20;11.98;;;2.70;;
17991;SDS011;9121;50.926;5.340;2022-08-21T07:16:47;9.93;;;2.90;;
17991;SDS011;9121;50.926;5.340;2022-08-21T07:19:15;11.25;;;2.80;;
17991;SDS011;9121;50.926;5.340;2022-08-21T07:21:44;10.38;;;2.63;;
17991;SDS011;9121;50.926;5.340;2022-08-21T07:24:11;8.13;;;2.45;;
17991;SDS011;9121;50.926;5.340;2022-08-21T07:26:38;10.80;;;2.90;;
17991;SDS011;9121;50.926;5.340;2022-08-21T07:29:05;8.80;;;2.45;;
17991;SDS011;9121;50.926;5.340;2022-08-21T07:31:32;9.32;;;2.25;;
17991;SDS011;9121;50.926;5.340;2022-08-21T07:33:59;7.25;;;2.03;;
17991;SDS011;9121;50.926;5.340;2022-08-21T07:36:27;15.15;;;2.25;;
17991;SDS011;9121;50.926;5.340;2022-08-21T07:38:55;12.48;;;2.58;;
17991;SDS011;9121;50.926;5.340;2022-08-21T07:41:23;8.77;;;2.05;;
17991;SDS011;9121;50.926;5.340;2022-08-21T07:43:54;9.82;;;2.20;;
17991;SDS011;9121;50.926;5.340;2022-08-21T07:46:22;10.27;;;2.38;;
17991;SDS011;9121;50.926;5.340;2022-08-21T07:48:49;10.80;;;2.28;;
17991;SDS011;9121;50.926;5.340;2022-08-21T07:51:17;9.55;;;2.35;;
17991;SDS011;9121;50.926;5.340;2022-08-21T07:53:47;12.57;;;2.20;;
17991;SDS011;9121;50.926;5.340;2022-08-21T07:56:17;10.63;;;2.55;;
17991;SDS011;9121;50.926;5.340;2022-08-21T07:58:44;7.53;;;2.15;;
17991;SDS011;9121;50.926;5.340;2022-08-21T08:01:12;9.98;;;2.10;;
17991;SDS011;9121;50.926;5.340;2022-08-21T08:03:39;6.25;;;2.00;;
17991;SDS011;9121;50.926;5.340;2022-08-21T08:06:07;10.95;;;2.47;;
17991;SDS011;9121;50.926;5.340;2022-08-21T08:08:37;9.73;;;2.20;;
17991;SDS011;9121;50.926;5.340;2022-08-21T08:11:05;9.02;;;2.03;;
17991;SDS011;9121;50.926;5.340;2022-08-21T08:13:39;10.30;;;2.20;;
17991;SDS011;9121;50.926;5.340;2022-08-21T08:16:07;13.23;;;2.33;;
17991;SDS011;9121;50.926;5.340;2022-08-21T08:18:34;8.35;;;2.20;;
17991;SDS011;9121;50.926;5.340;2022-08-21T08:21:01;10.75;;;2.30;;
17991;SDS011;9121;50.926;5.340;2022-08-21T08:23:28;7.82;;;2.30;;
17991;SDS011;9121;50.926;5.340;2022-08-21T08:25:55;11.02;;;2.10;;
17991;SDS011;9121;50.926;5.340;2022-08-21T08:28:22;14.75;;;2.72;;
17991;SDS011;9121;50.926;5.340;2022-08-21T08:30:51;11.23;;;2.58;;
17991;SDS011;9121;50.926;5.340;2022-08-21T08:33:18;7.63;;;2.17;;
17991;SDS011;9121;50.926;5.340;2022-08-21T08:35:46;5.63;;;1.90;;
17991;SDS011;9121;50.926;5.340;2022-08-21T08:38:14;8.48;;;2.45;;
17991;SDS011;9121;50.926;5.340;2022-08-21T08:40:46;11.73;;;2.45;;
17991;SDS011;9121;50.926;5.340;2022-08-21T08:43:18;8.35;;;2.22;;
17991;SDS011;9121;50.926;5.340;2022-08-21T08:45:46;10.15;;;1.92;;
17991;SDS011;9121;50.926;5.340;2022-08-21T08:48:20;7.68;;;2.05;;
17991;SDS011;9121;50.926;5.340;2022-08-21T08:51:06;8.27;;;1.67;;
17991;SDS011;9121;50.926;5.340;2022-08-21T08:53:42;5.88;;;1.60;;
17991;SDS011;9121;50.926;5.340;2022-08-21T08:56:15;7.07;;;1.95;;
17991;SDS011;9121;50.926;5.340;2022-08-21T08:58:47;6.60;;;1.90;;
17991;SDS011;9121;50.926;5.340;2022-08-21T09:01:17;8.57;;;2.03;;
17991;SDS011;9121;50.926;5.340;2022-08-21T09:03:46;12.02;;;2.15;;
17991;SDS011;9121;50.926;5.340;2022-08-21T09:06:20;6.93;;;1.90;;
17991;SDS011;9121;50.926;5.340;2022-08-21T09:09:02;5.47;;;1.52;;
17991;SDS011;9121;50.926;5.340;2022-08-21T09:11:40;10.35;;;2.15;;
17991;SDS011;9121;50.926;5.340;2022-08-21T09:14:21;5.85;;;1.88;;
17991;SDS011;9121;50.926;5.340;2022-08-21T09:16:55;7.80;;;1.90;;
17991;SDS011;9121;50.926;5.340;2022-08-21T09:19:36;6.38;;;1.70;;
17991;SDS011;9121;50.926;5.340;2022-08-21T09:22:13;7.28;;;2.33;;
17991;SDS011;9121;50.926;5.340;2022-08-21T09:24:52;7.35;;;2.25;;
17991;SDS011;9121;50.926;5.340;2022-08-21T09:27:27;9.93;;;2.72;;
17991;SDS011;9121;50.926;5.340;2022-08-21T09:29:56;6.50;;;1.80;;
17991;SDS011;9121;50.926;5.340;2022-08-21T09:32:24;5.22;;;1.75;;
17991;SDS011;9121;50.926;5.340;2022-08-21T09:34:58;8.40;;;1.80;;
17991;SDS011;9121;50.926;5.340;2022-08-21T09:37:27;9.18;;;2.10;;
17991;SDS011;9121;50.926;5.340;2022-08-21T09:39:56;8.63;;;2.40;;
17991;SDS011;9121;50.926;5.340;2022-08-21T09:42:25;7.30;;;1.83;;
17991;SDS011;9121;50.926;5.340;2022-08-21T09:45:05;6.55;;;1.92;;
17991;SDS011;9121;50.926;5.340;2022-08-21T09:47:37;9.52;;;2.17;;
17991;SDS011;9121;50.926;5.340;2022-08-21T09:50:09;6.53;;;1.88;;
17991;SDS011;9121;50.926;5.340;2022-08-21T09:52:42;7.50;;;2.08;;
17991;SDS011;9121;50.926;5.340;2022-08-21T09:55:15;8.52;;;2.30;;
17991;SDS011;9121;50.926;5.340;2022-08-21T09:57:59;7.05;;;1.70;;
17991;SDS011;9121;50.926;5.340;2022-08-21T10:00:28;7.53;;;1.98;;
17991;SDS011;9121;50.926;5.340;2022-08-21T10:03:07;6.95;;;1.50;;
17991;SDS011;9121;50.926;5.340;2022-08-21T10:05:36;5.18;;;1.20;;
17991;SDS011;9121;50.926;5.340;2022-08-21T10:08:03;7.60;;;2.00;;
17991;SDS011;9121;50.926;5.340;2022-08-21T10:10:31;7.95;;;1.80;;
17991;SDS011;9121;50.926;5.340;2022-08-21T10:13:05;7.88;;;1.73;;
17991;SDS011;9121;50.926;5.340;2022-08-21T10:15:40;8.18;;;1.88;;
17991;SDS011;9121;50.926;5.340;2022-08-21T10:18:17;7.88;;;1.55;;
17991;SDS011;9121;50.926;5.340;2022-08-21T10:20:50;8.52;;;1.98;;
17991;SDS011;9121;50.926;5.340;2022-08-21T10:23:28;14.05;;;1.77;;
17991;SDS011;9121;50.926;5.340;2022-08-21T10:26:08;9.57;;;2.13;;
17991;SDS011;9121;50.926;5.340;2022-08-21T10:28:54;7.25;;;1.73;;
17991;SDS011;9121;50.926;5.340;2022-08-21T10:31:28;5.90;;;1.60;;
17991;SDS011;9121;50.926;5.340;2022-08-21T10:34:13;8.43;;;1.60;;
17991;SDS011;9121;50.926;5.340;2022-08-21T10:36:53;7.80;;;1.77;;
17991;SDS011;9121;50.926;5.340;2022-08-21T10:39:31;7.65;;;1.70;;
17991;SDS011;9121;50.926;5.340;2022-08-21T10:42:14;9.38;;;1.63;;
17991;SDS011;9121;50.926;5.340;2022-08-21T10:44:54;8.35;;;2.17;;
17991;SDS011;9121;50.926;5.340;2022-08-21T10:47:32;8.65;;;2.13;;
17991;SDS011;9121;50.926;5.340;2022-08-21T10:50:04;9.00;;;2.05;;
17991;SDS011;9121;50.926;5.340;2022-08-21T10:52:44;5.65;;;1.95;;
17991;SDS011;9121;50.926;5.340;2022-08-21T10:55:25;9.38;;;1.63;;
17991;SDS011;9121;50.926;5.340;2022-08-21T10:57:58;5.30;;;1.48;;
17991;SDS011;9121;50.926;5.340;2022-08-21T11:00:29;7.60;;;2.20;;
17991;SDS011;9121;50.926;5.340;2022-08-21T11:03:02;9.48;;;1.77;;
17991;SDS011;9121;50.926;5.340;2022-08-21T11:05:34;11.45;;;2.08;;
17991;SDS011;9121;50.926;5.340;2022-08-21T11:08:09;7.03;;;1.75;;
17991;SDS011;9121;50.926;5.340;2022-08-21T11:10:39;7.25;;;2.17;;
17991;SDS011;9121;50.926;5.340;2022-08-21T11:13:11;4.65;;;1.70;;
17991;SDS011;9121;50.926;5.340;2022-08-21T11:15:43;8.27;;;2.00;;
17991;SDS011;9121;50.926;5.340;2022-08-21T11:18:19;5.95;;;1.88;;
17991;SDS011;9121;50.926;5.340;2022-08-21T11:20:51;7.82;;;1.88;;
17991;SDS011;9121;50.926;5.340;2022-08-21T11:23:31;8.85;;;2.10;;
17991;SDS011;9121;50.926;5.340;2022-08-21T11:26:05;5.00;;;1.58;;
17991;SDS011;9121;50.926;5.340;2022-08-21T11:28:37;12.40;;;2.13;;
17991;SDS011;9121;50.926;5.340;2022-08-21T11:31:13;15.70;;;2.28;;
17991;SDS011;9121;50.926;5.340;2022-08-21T11:33:58;7.60;;;2.38;;
17991;SDS011;9121;50.926;5.340;2022-08-21T11:36:38;10.32;;;2.67;;
17991;SDS011;9121;50.926;5.340;2022-08-21T11:39:16;7.70;;;2.28;;
17991;SDS011;9121;50.926;5.340;2022-08-21T11:41:51;6.35;;;1.80;;
17991;SDS011;9121;50.926;5.340;2022-08-21T11:44:29;9.93;;;1.88;;
17991;SDS011;9121;50.926;5.340;2022-08-21T11:47:08;9.35;;;2.28;;
17991;SDS011;9121;50.926;5.340;2022-08-21T11:49:43;9.30;;;1.70;;
17991;SDS011;9121;50.926;5.340;2022-08-21T11:52:29;9.65;;;2.05;;
17991;SDS011;9121;50.926;5.340;2022-08-21T11:55:04;8.50;;;2.10;;
17991;SDS011;9121;50.926;5.340;2022-08-21T11:57:34;9.10;;;1.77;;
17991;SDS011;9121;50.926;5.340;2022-08-21T12:00:16;8.18;;;2.05;;
17991;SDS011;9121;50.926;5.340;2022-08-21T12:02:49;8.27;;;1.85;;
17991;SDS011;9121;50.926;5.340;2022-08-21T12:05:29;5.38;;;1.77;;
17991;SDS011;9121;50.926;5.340;2022-08-21T12:08:06;8.32;;;2.08;;
17991;SDS011;9121;50.926;5.340;2022-08-21T12:10:39;9.05;;;2.28;;
17991;SDS011;9121;50.926;5.340;2022-08-21T12:13:09;5.80;;;1.92;;
17991;SDS011;9121;50.926;5.340;2022-08-21T12:15:39;12.23;;;1.92;;
17991;SDS011;9121;50.926;5.340;2022-08-21T12:18:07;5.65;;;1.50;;
17991;SDS011;9121;50.926;5.340;2022-08-21T12:20:56;8.57;;;1.67;;
17991;SDS011;9121;50.926;5.340;2022-08-21T12:23:27;9.80;;;2.28;;
17991;SDS011;9121;50.926;5.340;2022-08-21T12:26:02;7.75;;;2.20;;
17991;SDS011;9121;50.926;5.340;2022-08-21T12:28:44;8.60;;;2.00;;
17991;SDS011;9121;50.926;5.340;2022-08-21T12:31:22;10.00;;;2.10;;
17991;SDS011;9121;50.926;5.340;2022-08-21T12:33:51;9.18;;;2.50;;
17991;SDS011;9121;50.926;5.340;2022-08-21T12:36:24;8.98;;;2.15;;
17991;SDS011;9121;50.926;5.340;2022-08-21T12:38:56;7.53;;;2.00;;
17991;SDS011;9121;50.926;5.340;2022-08-21T12:41:27;14.52;;;2.50;;
17991;SDS011;9121;50.926;5.340;2022-08-21T12:43:57;10.85;;;2.40;;
17991;SDS011;9121;50.926;5.340;2022-08-21T12:46:32;8.02;;;2.30;;
17991;SDS011;9121;50.926;5.340;2022-08-21T12:49:07;6.95;;;1.95;;
17991;SDS011;9121;50.926;5.340;2022-08-21T12:51:43;6.05;;;2.00;;
17991;SDS011;9121;50.926;5.340;2022-08-21T12:54:22;9.10;;;2.35;;
17991;SDS011;9121;50.926;5.340;2022-08-21T12:57:02;10.63;;;2.13;;
17991;SDS011;9121;50.926;5.340;2022-08-21T12:59:32;9.07;;;2.00;;
17991;SDS011;9121;50.926;5.340;2022-08-21T13:02:03;10.57;;;2.28;;
17991;SDS011;9121;50.926;5.340;2022-08-21T13:04:40;8.38;;;2.50;;
17991;SDS011;9121;50.926;5.340;2022-08-21T13:07:08;5.88;;;2.00;;
17991;SDS011;9121;50.926;5.340;2022-08-21T13:09:39;7.95;;;2.17;;
17991;SDS011;9121;50.926;5.340;2022-08-21T13:12:12;5.63;;;1.73;;
17991;SDS011;9121;50.926;5.340;2022-08-21T13:14:41;8.75;;;2.20;;
17991;SDS011;9121;50.926;5.340;2022-08-21T13:17:11;8.75;;;2.25;;
17991;SDS011;9121;50.926;5.340;2022-08-21T13:19:39;9.15;;;1.83;;
17991;SDS011;9121;50.926;5.340;2022-08-21T13:22:11;8.35;;;1.65;;
17991;SDS011;9121;50.926;5.340;2022-08-21T13:24:39;9.13;;;1.92;;
17991;SDS011;9121;50.926;5.340;2022-08-21T13:27:16;6.97;;;1.73;;
17991;SDS011;9121;50.926;5.340;2022-08-21T13:29:48;10.90;;;1.63;;
17991;SDS011;9121;50.926;5.340;2022-08-21T13:32:27;6.15;;;1.95;;
17991;SDS011;9121;50.926;5.340;2022-08-21T13:34:57;7.55;;;2.10;;
17991;SDS011;9121;50.926;5.340;2022-08-21T13:37:25;9.82;;;2.30;;
17991;SDS011;9121;50.926;5.340;2022-08-21T13:39:53;4.90;;;1.85;;
17991;SDS011;9121;50.926;5.340;2022-08-21T13:42:21;9.82;;;1.88;;
17991;SDS011;9121;50.926;5.340;2022-08-21T13:44:50;7.95;;;1.95;;
17991;SDS011;9121;50.926;5.340;2022-08-21T13:47:19;8.40;;;2.03;;
17991;SDS011;9121;50.926;5.340;2022-08-21T13:49:47;6.18;;;1.98;;
17991;SDS011;9121;50.926;5.340;2022-08-21T13:52:19;7.70;;;1.70;;
17991;SDS011;9121;50.926;5.340;2022-08-21T13:54:51;6.68;;;1.65;;
17991;SDS011;9121;50.926;5.340;2022-08-21T13:57:25;10.25;;;2.13;;
17991;SDS011;9121;50.926;5.340;2022-08-21T14:00:09;10.73;;;2.10;;
17991;SDS011;9121;50.926;5.340;2022-08-21T14:02:38;11.93;;;2.38;;
17991;SDS011;9121;50.926;5.340;2022-08-21T14:05:08;9.02;;;2.35;;
17991;SDS011;9121;50.926;5.340;2022-08-21T14:07:42;8.75;;;2.47;;
17991;SDS011;9121;50.926;5.340;2022-08-21T14:10:11;8.10;;;2.15;;
17991;SDS011;9121;50.926;5.340;2022-08-21T14:12:43;14.43;;;2.38;;
17991;SDS011;9121;50.926;5.340;2022-08-21T14:15:13;8.48;;;1.92;;
17991;SDS011;9121;50.926;5.340;2022-08-21T14:17:42;12.00;;;2.50;;
17991;SDS011;9121;50.926;5.340;2022-08-21T14:20:11;11.57;;;2.35;;
17991;SDS011;9121;50.926;5.340;2022-08-21T14:22:51;6.20;;;1.92;;
17991;SDS011;9121;50.926;5.340;2022-08-21T14:25:27;8.38;;;2.13;;
17991;SDS011;9121;50.926;5.340;2022-08-21T14:27:59;11.50;;;2.67;;
17991;SDS011;9121;50.926;5.340;2022-08-21T14:30:31;6.47;;;1.80;;
17991;SDS011;9121;50.926;5.340;2022-08-21T14:32:59;9.38;;;2.10;;
17991;SDS011;9121;50.926;5.340;2022-08-21T14:35:27;8.60;;;2.10;;
17991;SDS011;9121;50.926;5.340;2022-08-21T14:37:54;5.78;;;1.80;;
17991;SDS011;9121;50.926;5.340;2022-08-21T14:40:22;11.10;;;2.33;;
17991;SDS011;9121;50.926;5.340;2022-08-21T14:42:50;7.70;;;2.30;;
17991;SDS011;9121;50.926;5.340;2022-08-21T14:45:20;7.38;;;2.45;;
17991;SDS011;9121;50.926;5.340;2022-08-21T14:47:52;10.52;;;2.22;;
17991;SDS011;9121;50.926;5.340;2022-08-21T14:50:19;7.20;;;2.05;;
17991;SDS011;9121;50.926;5.340;2022-08-21T14:52:45;9.43;;;2.03;;
17991;SDS011;9121;50.926;5.340;2022-08-21T14:55:13;8.18;;;1.95;;
17991;SDS011;9121;50.926;5.340;2022-08-21T14:57:41;8.38;;;2.30;;
17991;SDS011;9121;50.926;5.340;2022-08-21T15:00:11;9.88;;;2.20;;
17991;SDS011;9121;50.926;5.340;2022-08-21T15:02:43;5.22;;;1.70;;
17991;SDS011;9121;50.926;5.340;2022-08-21T15:05:10;7.90;;;2.13;;
17991;SDS011;9121;50.926;5.340;2022-08-21T15:07:38;13.80;;;2.45;;
17991;SDS011;9121;50.926;5.340;2022-08-21T15:10:06;10.35;;;2.38;;
17991;SDS011;9121;50.926;5.340;2022-08-21T15:12:35;13.93;;;4.43;;